sensor_id;sensor_type;location;lat;lon;timestamp;P1;durP1;ratioP1;P2;durP2;ratioP2
54517;SDS011;40423;53.176;6.002;2022-07-24T00:00:15;6.82;;;3.65;;
54517;SDS011;40423;53.176;6.002;2022-07-24T00:02:42;4.95;;;3.58;;
54517;SDS011;40423;53.176;6.002;2022-07-24T00:05:08;4.43;;;3.30;;
54517;SDS011;40423;53.176;6.002;2022-07-24T00:07:35;5.07;;;3.25;;
54517;SDS011;40423;53.176;6.002;2022-07-24T00:10:02;5.05;;;3.80;;
54517;SDS011;40423;53.176;6.002;2022-07-24T00:12:29;5.57;;;4.25;;
54517;SDS011;40423;53.176;6.002;2022-07-24T00:14:55;5.80;;;3.95;;
54517;SDS011;40423;53.176;6.002;2022-07-24T00:17:21;6.38;;;4.07;;
54517;SDS011;40423;53.176;6.002;2022-07-24T00:19:47;6.60;;;4.68;;
54517;SDS011;40423;53.176;6.002;2022-07-24T00:22:13;7.20;;;4.13;;
54517;SDS011;40423;53.176;6.002;2022-07-24T00:24:39;4.90;;;3.35;;
54517;SDS011;40423;53.176;6.002;2022-07-24T00:27:05;6.05;;;4.22;;
54517;SDS011;40423;53.176;6.002;2022-07-24T00:29:31;9.35;;;4.57;;
54517;SDS011;40423;53.176;6.002;2022-07-24T00:31:56;8.25;;;4.43;;
54517;SDS011;40423;53.176;6.002;2022-07-24T00:34:22;6.20;;;3.83;;
54517;SDS011;40423;53.176;6.002;2022-07-24T00:36:48;7.13;;;5.18;;
54517;SDS011;40423;53.176;6.002;2022-07-24T00:39:14;6.43;;;4.47;;
54517;SDS011;40423;53.176;6.002;2022-07-24T00:41:40;8.32;;;4.65;;
54517;SDS011;40423;53.176;6.002;2022-07-24T00:44:11;5.70;;;4.13;;
54517;SDS011;40423;53.176;6.002;2022-07-24T00:46:39;6.03;;;4.35;;
54517;SDS011;40423;53.176;6.002;2022-07-24T00:49:08;7.00;;;4.85;;
54517;SDS011;40423;53.176;6.002;2022-07-24T00:51:39;5.03;;;4.53;;
54517;SDS011;40423;53.176;6.002;2022-07-24T00:54:06;5.72;;;4.57;;
54517;SDS011;40423;53.176;6.002;2022-07-24T00:56:33;7.70;;;5.00;;
54517;SDS011;40423;53.176;6.002;2022-07-24T00:59:00;8.65;;;5.38;;
54517;SDS011;40423;53.176;6.002;2022-07-24T01:01:27;6.57;;;4.82;;
54517;SDS011;40423;53.176;6.002;2022-07-24T01:03:53;6.22;;;5.38;;
54517;SDS011;40423;53.176;6.002;2022-07-24T01:06:19;6.10;;;5.28;;
54517;SDS011;40423;53.176;6.002;2022-07-24T01:08:45;6.65;;;5.45;;
54517;SDS011;40423;53.176;6.002;2022-07-24T01:11:11;5.68;;;4.72;;
54517;SDS011;40423;53.176;6.002;2022-07-24T01:13:37;6.68;;;4.85;;
54517;SDS011;40423;53.176;6.002;2022-07-24T01:16:05;5.43;;;4.90;;
54517;SDS011;40423;53.176;6.002;2022-07-24T01:18:32;9.82;;;5.63;;
54517;SDS011;40423;53.176;6.002;2022-07-24T01:20:57;6.43;;;4.93;;
54517;SDS011;40423;53.176;6.002;2022-07-24T01:23:23;7.10;;;5.00;;
54517;SDS011;40423;53.176;6.002;2022-07-24T01:25:49;6.07;;;4.97;;
54517;SDS011;40423;53.176;6.002;2022-07-24T01:28:15;7.53;;;5.50;;
54517;SDS011;40423;53.176;6.002;2022-07-24T01:30:41;7.35;;;5.70;;
54517;SDS011;40423;53.176;6.002;2022-07-24T01:33:07;6.45;;;5.28;;
54517;SDS011;40423;53.176;6.002;2022-07-24T01:35:33;7.55;;;5.47;;
54517;SDS011;40423;53.176;6.002;2022-07-24T01:37:59;7.00;;;5.40;;
54517;SDS011;40423;53.176;6.002;2022-07-24T01:40:24;7.18;;;6.15;;
54517;SDS011;40423;53.176;6.002;2022-07-24T01:42:50;7.07;;;5.68;;
54517;SDS011;40423;53.176;6.002;2022-07-24T01:45:16;6.95;;;5.72;;
54517;SDS011;40423;53.176;6.002;2022-07-24T01:47:43;7.10;;;6.38;;
54517;SDS011;40423;53.176;6.002;2022-07-24T01:50:09;7.38;;;5.40;;
54517;SDS011;40423;53.176;6.002;2022-07-24T01:52:36;7.65;;;5.20;;
54517;SDS011;40423;53.176;6.002;2022-07-24T01:55:03;6.32;;;5.40;;
54517;SDS011;40423;53.176;6.002;2022-07-24T01:57:30;6.53;;;5.85;;
54517;SDS011;40423;53.176;6.002;2022-07-24T01:59:55;6.25;;;5.35;;
54517;SDS011;40423;53.176;6.002;2022-07-24T02:02:22;6.85;;;5.88;;
54517;SDS011;40423;53.176;6.002;2022-07-24T02:04:48;7.13;;;6.00;;
54517;SDS011;40423;53.176;6.002;2022-07-24T02:07:14;8.10;;;6.63;;
54517;SDS011;40423;53.176;6.002;2022-07-24T02:09:40;8.13;;;6.65;;
54517;SDS011;40423;53.176;6.002;2022-07-24T02:12:05;7.15;;;6.25;;
54517;SDS011;40423;53.176;6.002;2022-07-24T02:14:31;6.78;;;5.95;;
54517;SDS011;40423;53.176;6.002;2022-07-24T02:16:57;7.78;;;6.07;;
54517;SDS011;40423;53.176;6.002;2022-07-24T02:19:23;9.57;;;7.15;;
54517;SDS011;40423;53.176;6.002;2022-07-24T02:21:49;7.90;;;7.00;;
54517;SDS011;40423;53.176;6.002;2022-07-24T02:24:15;7.28;;;6.55;;
54517;SDS011;40423;53.176;6.002;2022-07-24T02:26:41;8.25;;;6.70;;
54517;SDS011;40423;53.176;6.002;2022-07-24T02:29:07;8.60;;;7.63;;
54517;SDS011;40423;53.176;6.002;2022-07-24T02:31:33;8.50;;;7.25;;
54517;SDS011;40423;53.176;6.002;2022-07-24T02:33:59;8.55;;;7.18;;
54517;SDS011;40423;53.176;6.002;2022-07-24T02:36:25;7.80;;;6.32;;
54517;SDS011;40423;53.176;6.002;2022-07-24T02:38:51;8.38;;;7.47;;
54517;SDS011;40423;53.176;6.002;2022-07-24T02:41:17;9.80;;;7.50;;
54517;SDS011;40423;53.176;6.002;2022-07-24T02:43:43;8.57;;;7.40;;
54517;SDS011;40423;53.176;6.002;2022-07-24T02:46:09;10.90;;;8.10;;
54517;SDS011;40423;53.176;6.002;2022-07-24T02:48:34;9.73;;;6.82;;
54517;SDS011;40423;53.176;6.002;2022-07-24T02:51:00;10.93;;;7.30;;
54517;SDS011;40423;53.176;6.002;2022-07-24T02:53:26;7.82;;;6.80;;
54517;SDS011;40423;53.176;6.002;2022-07-24T02:55:51;9.27;;;8.30;;
54517;SDS011;40423;53.176;6.002;2022-07-24T02:58:17;8.48;;;7.43;;
54517;SDS011;40423;53.176;6.002;2022-07-24T03:00:43;9.13;;;8.05;;
54517;SDS011;40423;53.176;6.002;2022-07-24T03:03:09;8.65;;;7.30;;
54517;SDS011;40423;53.176;6.002;2022-07-24T03:05:34;9.40;;;8.40;;
54517;SDS011;40423;53.176;6.002;2022-07-24T03:08:00;8.02;;;7.22;;
54517;SDS011;40423;53.176;6.002;2022-07-24T03:10:26;10.02;;;8.30;;
54517;SDS011;40423;53.176;6.002;2022-07-24T03:12:52;10.63;;;8.82;;
54517;SDS011;40423;53.176;6.002;2022-07-24T03:15:18;10.38;;;8.07;;
54517;SDS011;40423;53.176;6.002;2022-07-24T03:17:50;9.27;;;7.15;;
54517;SDS011;40423;53.176;6.002;2022-07-24T03:20:18;10.43;;;8.00;;
54517;SDS011;40423;53.176;6.002;2022-07-24T03:22:45;8.88;;;7.85;;
54517;SDS011;40423;53.176;6.002;2022-07-24T03:25:11;9.60;;;7.65;;
54517;SDS011;40423;53.176;6.002;2022-07-24T03:27:38;9.88;;;7.68;;
54517;SDS011;40423;53.176;6.002;2022-07-24T03:30:04;10.68;;;8.88;;
54517;SDS011;40423;53.176;6.002;2022-07-24T03:32:30;10.10;;;7.53;;
54517;SDS011;40423;53.176;6.002;2022-07-24T03:34:56;9.88;;;8.50;;
54517;SDS011;40423;53.176;6.002;2022-07-24T03:37:22;11.57;;;8.95;;
54517;SDS011;40423;53.176;6.002;2022-07-24T03:39:48;9.80;;;8.43;;
54517;SDS011;40423;53.176;6.002;2022-07-24T03:42:13;9.73;;;8.73;;
54517;SDS011;40423;53.176;6.002;2022-07-24T03:44:39;11.27;;;9.43;;
54517;SDS011;40423;53.176;6.002;2022-07-24T03:47:05;11.60;;;9.38;;
54517;SDS011;40423;53.176;6.002;2022-07-24T03:49:31;9.50;;;7.68;;
54517;SDS011;40423;53.176;6.002;2022-07-24T03:51:57;10.35;;;9.25;;
54517;SDS011;40423;53.176;6.002;2022-07-24T03:54:22;8.90;;;8.05;;
54517;SDS011;40423;53.176;6.002;2022-07-24T03:56:49;10.98;;;8.48;;
54517;SDS011;40423;53.176;6.002;2022-07-24T03:59:15;10.27;;;8.50;;
54517;SDS011;40423;53.176;6.002;2022-07-24T04:01:41;11.85;;;8.82;;
54517;SDS011;40423;53.176;6.002;2022-07-24T04:04:07;11.93;;;8.60;;
54517;SDS011;40423;53.176;6.002;2022-07-24T04:06:33;10.07;;;9.07;;
54517;SDS011;40423;53.176;6.002;2022-07-24T04:08:59;10.63;;;8.05;;
54517;SDS011;40423;53.176;6.002;2022-07-24T04:11:26;9.27;;;8.30;;
54517;SDS011;40423;53.176;6.002;2022-07-24T04:13:52;10.52;;;9.40;;
54517;SDS011;40423;53.176;6.002;2022-07-24T04:16:18;11.02;;;8.55;;
54517;SDS011;40423;53.176;6.002;2022-07-24T04:18:44;11.18;;;9.48;;
54517;SDS011;40423;53.176;6.002;2022-07-24T04:21:10;9.77;;;8.45;;
54517;SDS011;40423;53.176;6.002;2022-07-24T04:23:36;9.65;;;8.23;;
54517;SDS011;40423;53.176;6.002;2022-07-24T04:26:02;10.50;;;8.90;;
54517;SDS011;40423;53.176;6.002;2022-07-24T04:28:29;13.52;;;8.95;;
54517;SDS011;40423;53.176;6.002;2022-07-24T04:30:55;10.45;;;9.40;;
54517;SDS011;40423;53.176;6.002;2022-07-24T04:33:21;9.57;;;8.57;;
54517;SDS011;40423;53.176;6.002;2022-07-24T04:35:46;10.43;;;9.20;;
54517;SDS011;40423;53.176;6.002;2022-07-24T04:38:12;11.15;;;9.00;;
54517;SDS011;40423;53.176;6.002;2022-07-24T04:40:38;10.70;;;8.75;;
54517;SDS011;40423;53.176;6.002;2022-07-24T04:43:04;11.52;;;8.95;;
54517;SDS011;40423;53.176;6.002;2022-07-24T04:45:30;13.13;;;10.30;;
54517;SDS011;40423;53.176;6.002;2022-07-24T04:47:56;11.02;;;9.75;;
54517;SDS011;40423;53.176;6.002;2022-07-24T04:50:21;12.27;;;10.43;;
54517;SDS011;40423;53.176;6.002;2022-07-24T04:52:47;13.52;;;9.98;;
54517;SDS011;40423;53.176;6.002;2022-07-24T04:55:13;10.73;;;9.52;;
54517;SDS011;40423;53.176;6.002;2022-07-24T04:57:39;12.13;;;10.27;;
54517;SDS011;40423;53.176;6.002;2022-07-24T05:00:06;10.93;;;9.82;;
54517;SDS011;40423;53.176;6.002;2022-07-24T05:02:34;12.95;;;11.02;;
54517;SDS011;40423;53.176;6.002;2022-07-24T05:05:00;18.75;;;10.88;;
54517;SDS011;40423;53.176;6.002;2022-07-24T05:07:26;14.32;;;10.20;;
54517;SDS011;40423;53.176;6.002;2022-07-24T05:09:51;10.63;;;8.98;;
54517;SDS011;40423;53.176;6.002;2022-07-24T05:12:17;12.35;;;9.10;;
54517;SDS011;40423;53.176;6.002;2022-07-24T05:14:43;11.38;;;10.23;;
54517;SDS011;40423;53.176;6.002;2022-07-24T05:17:09;13.43;;;9.93;;
54517;SDS011;40423;53.176;6.002;2022-07-24T05:19:34;12.05;;;10.45;;
54517;SDS011;40423;53.176;6.002;2022-07-24T05:22:00;13.77;;;10.85;;
54517;SDS011;40423;53.176;6.002;2022-07-24T05:24:26;12.65;;;11.32;;
54517;SDS011;40423;53.176;6.002;2022-07-24T05:26:51;12.65;;;10.90;;
54517;SDS011;40423;53.176;6.002;2022-07-24T05:29:18;13.95;;;10.38;;
54517;SDS011;40423;53.176;6.002;2022-07-24T05:31:44;15.18;;;11.43;;
54517;SDS011;40423;53.176;6.002;2022-07-24T05:34:09;14.95;;;10.38;;
54517;SDS011;40423;53.176;6.002;2022-07-24T05:36:35;15.10;;;10.98;;
54517;SDS011;40423;53.176;6.002;2022-07-24T05:39:01;11.25;;;9.98;;
54517;SDS011;40423;53.176;6.002;2022-07-24T05:41:28;14.15;;;10.85;;
54517;SDS011;40423;53.176;6.002;2022-07-24T05:43:54;11.93;;;10.55;;
54517;SDS011;40423;53.176;6.002;2022-07-24T05:46:20;12.13;;;10.82;;
54517;SDS011;40423;53.176;6.002;2022-07-24T05:48:46;14.65;;;11.55;;
54517;SDS011;40423;53.176;6.002;2022-07-24T05:51:12;14.48;;;11.18;;
54517;SDS011;40423;53.176;6.002;2022-07-24T05:53:37;12.77;;;10.60;;
54517;SDS011;40423;53.176;6.002;2022-07-24T05:56:03;13.40;;;11.73;;
54517;SDS011;40423;53.176;6.002;2022-07-24T05:58:29;16.70;;;12.55;;
54517;SDS011;40423;53.176;6.002;2022-07-24T06:00:55;16.48;;;12.23;;
54517;SDS011;40423;53.176;6.002;2022-07-24T06:03:21;16.15;;;13.25;;
54517;SDS011;40423;53.176;6.002;2022-07-24T06:05:47;14.95;;;12.52;;
54517;SDS011;40423;53.176;6.002;2022-07-24T06:08:12;17.75;;;13.13;;
54517;SDS011;40423;53.176;6.002;2022-07-24T06:10:38;15.82;;;12.90;;
54517;SDS011;40423;53.176;6.002;2022-07-24T06:13:04;13.68;;;11.88;;
54517;SDS011;40423;53.176;6.002;2022-07-24T06:15:30;14.70;;;13.15;;
54517;SDS011;40423;53.176;6.002;2022-07-24T06:17:56;14.82;;;13.32;;
54517;SDS011;40423;53.176;6.002;2022-07-24T06:20:22;15.82;;;12.38;;
54517;SDS011;40423;53.176;6.002;2022-07-24T06:22:48;16.65;;;13.52;;
54517;SDS011;40423;53.176;6.002;2022-07-24T06:25:14;17.40;;;13.80;;
54517;SDS011;40423;53.176;6.002;2022-07-24T06:27:46;17.08;;;14.43;;
54517;SDS011;40423;53.176;6.002;2022-07-24T06:30:14;15.20;;;13.60;;
54517;SDS011;40423;53.176;6.002;2022-07-24T06:32:40;14.02;;;12.52;;
54517;SDS011;40423;53.176;6.002;2022-07-24T06:35:06;16.67;;;14.02;;
54517;SDS011;40423;53.176;6.002;2022-07-24T06:37:32;15.93;;;13.88;;
54517;SDS011;40423;53.176;6.002;2022-07-24T06:39:58;16.58;;;14.65;;
54517;SDS011;40423;53.176;6.002;2022-07-24T06:42:24;16.02;;;13.80;;
54517;SDS011;40423;53.176;6.002;2022-07-24T06:44:50;14.50;;;13.00;;
54517;SDS011;40423;53.176;6.002;2022-07-24T06:47:15;16.40;;;13.88;;
54517;SDS011;40423;53.176;6.002;2022-07-24T06:49:41;17.52;;;14.50;;
54517;SDS011;40423;53.176;6.002;2022-07-24T06:52:07;19.13;;;14.77;;
54517;SDS011;40423;53.176;6.002;2022-07-24T06:54:32;18.73;;;14.85;;
54517;SDS011;40423;53.176;6.002;2022-07-24T06:56:58;21.20;;;15.63;;
54517;SDS011;40423;53.176;6.002;2022-07-24T06:59:24;18.10;;;15.70;;
54517;SDS011;40423;53.176;6.002;2022-07-24T07:01:49;21.45;;;15.07;;
54517;SDS011;40423;53.176;6.002;2022-07-24T07:04:15;18.17;;;15.90;;
54517;SDS011;40423;53.176;6.002;2022-07-24T07:06:41;19.83;;;15.10;;
54517;SDS011;40423;53.176;6.002;2022-07-24T07:09:07;16.05;;;14.07;;
54517;SDS011;40423;53.176;6.002;2022-07-24T07:11:32;14.90;;;13.30;;
54517;SDS011;40423;53.176;6.002;2022-07-24T07:13:58;18.50;;;15.82;;
54517;SDS011;40423;53.176;6.002;2022-07-24T07:16:27;17.33;;;14.95;;
54517;SDS011;40423;53.176;6.002;2022-07-24T07:18:53;17.67;;;14.63;;
54517;SDS011;40423;53.176;6.002;2022-07-24T07:21:18;15.02;;;13.48;;
54517;SDS011;40423;53.176;6.002;2022-07-24T07:23:44;18.05;;;15.60;;
54517;SDS011;40423;53.176;6.002;2022-07-24T07:26:10;18.27;;;14.98;;
54517;SDS011;40423;53.176;6.002;2022-07-24T07:28:35;18.08;;;14.57;;
54517;SDS011;40423;53.176;6.002;2022-07-24T07:31:01;20.55;;;16.00;;
54517;SDS011;40423;53.176;6.002;2022-07-24T07:33:27;19.23;;;14.93;;
54517;SDS011;40423;53.176;6.002;2022-07-24T07:35:53;20.00;;;14.75;;
54517;SDS011;40423;53.176;6.002;2022-07-24T07:38:19;18.83;;;15.20;;
54517;SDS011;40423;53.176;6.002;2022-07-24T07:40:44;18.23;;;15.52;;
54517;SDS011;40423;53.176;6.002;2022-07-24T07:43:10;17.00;;;14.57;;
54517;SDS011;40423;53.176;6.002;2022-07-24T07:45:36;15.63;;;13.55;;
54517;SDS011;40423;53.176;6.002;2022-07-24T07:48:02;18.67;;;14.23;;
54517;SDS011;40423;53.176;6.002;2022-07-24T07:50:28;15.32;;;13.73;;
54517;SDS011;40423;53.176;6.002;2022-07-24T07:52:54;15.05;;;13.30;;
54517;SDS011;40423;53.176;6.002;2022-07-24T07:55:20;17.02;;;14.77;;
54517;SDS011;40423;53.176;6.002;2022-07-24T07:57:46;16.80;;;12.90;;
54517;SDS011;40423;53.176;6.002;2022-07-24T08:00:12;16.90;;;13.73;;
54517;SDS011;40423;53.176;6.002;2022-07-24T08:02:38;17.55;;;14.00;;
54517;SDS011;40423;53.176;6.002;2022-07-24T08:05:04;14.20;;;12.70;;
54517;SDS011;40423;53.176;6.002;2022-07-24T08:07:31;14.88;;;12.07;;
54517;SDS011;40423;53.176;6.002;2022-07-24T08:09:57;16.90;;;12.70;;
54517;SDS011;40423;53.176;6.002;2022-07-24T08:12:23;13.57;;;12.20;;
54517;SDS011;40423;53.176;6.002;2022-07-24T08:14:49;15.27;;;10.75;;
54517;SDS011;40423;53.176;6.002;2022-07-24T08:17:15;14.32;;;10.63;;
54517;SDS011;40423;53.176;6.002;2022-07-24T08:19:40;12.73;;;8.85;;
54517;SDS011;40423;53.176;6.002;2022-07-24T08:22:07;10.27;;;7.63;;
54517;SDS011;40423;53.176;6.002;2022-07-24T08:24:33;12.27;;;8.25;;
54517;SDS011;40423;53.176;6.002;2022-07-24T08:26:59;13.27;;;8.13;;
54517;SDS011;40423;53.176;6.002;2022-07-24T08:29:25;9.57;;;7.65;;
54517;SDS011;40423;53.176;6.002;2022-07-24T08:31:52;9.27;;;7.32;;
54517;SDS011;40423;53.176;6.002;2022-07-24T08:34:17;11.30;;;7.40;;
54517;SDS011;40423;53.176;6.002;2022-07-24T08:36:43;11.10;;;7.50;;
54517;SDS011;40423;53.176;6.002;2022-07-24T08:39:13;9.27;;;6.28;;
54517;SDS011;40423;53.176;6.002;2022-07-24T08:41:40;12.98;;;7.95;;
54517;SDS011;40423;53.176;6.002;2022-07-24T08:44:07;9.85;;;6.63;;
54517;SDS011;40423;53.176;6.002;2022-07-24T08:46:36;10.23;;;6.65;;
54517;SDS011;40423;53.176;6.002;2022-07-24T08:49:05;9.70;;;7.15;;
54517;SDS011;40423;53.176;6.002;2022-07-24T08:51:33;8.50;;;6.35;;
54517;SDS011;40423;53.176;6.002;2022-07-24T08:54:02;9.77;;;6.10;;
54517;SDS011;40423;53.176;6.002;2022-07-24T08:56:29;9.07;;;6.18;;
54517;SDS011;40423;53.176;6.002;2022-07-24T08:58:55;8.85;;;6.68;;
54517;SDS011;40423;53.176;6.002;2022-07-24T09:01:21;6.80;;;5.45;;
54517;SDS011;40423;53.176;6.002;2022-07-24T09:03:47;6.65;;;5.50;;
54517;SDS011;40423;53.176;6.002;2022-07-24T09:06:13;5.60;;;4.57;;
54517;SDS011;40423;53.176;6.002;2022-07-24T09:08:57;6.43;;;4.63;;
54517;SDS011;40423;53.176;6.002;2022-07-24T09:11:25;5.82;;;4.35;;
54517;SDS011;40423;53.176;6.002;2022-07-24T09:13:58;6.15;;;4.95;;
54517;SDS011;40423;53.176;6.002;2022-07-24T09:16:44;8.80;;;5.43;;
54517;SDS011;40423;53.176;6.002;2022-07-24T09:19:10;6.97;;;4.40;;
54517;SDS011;40423;53.176;6.002;2022-07-24T09:21:39;6.07;;;4.18;;
54517;SDS011;40423;53.176;6.002;2022-07-24T09:26:48;6.32;;;3.70;;
54517;SDS011;40423;53.176;6.002;2022-07-24T09:29:21;6.70;;;3.75;;
54517;SDS011;40423;53.176;6.002;2022-07-24T09:31:49;5.63;;;3.47;;
54517;SDS011;40423;53.176;6.002;2022-07-24T09:34:15;5.60;;;3.22;;
54517;SDS011;40423;53.176;6.002;2022-07-24T09:36:40;6.05;;;3.03;;
54517;SDS011;40423;53.176;6.002;2022-07-24T09:39:06;4.25;;;3.30;;
54517;SDS011;40423;53.176;6.002;2022-07-24T09:41:32;5.30;;;3.38;;
54517;SDS011;40423;53.176;6.002;2022-07-24T09:44:14;4.57;;;2.92;;
54517;SDS011;40423;53.176;6.002;2022-07-24T09:46:40;6.00;;;4.28;;
54517;SDS011;40423;53.176;6.002;2022-07-24T09:49:19;6.32;;;4.18;;
54517;SDS011;40423;53.176;6.002;2022-07-24T09:51:45;5.38;;;3.83;;
54517;SDS011;40423;53.176;6.002;2022-07-24T09:54:30;6.80;;;3.70;;
54517;SDS011;40423;53.176;6.002;2022-07-24T09:57:16;6.18;;;4.00;;
54517;SDS011;40423;53.176;6.002;2022-07-24T10:02:17;4.60;;;3.60;;
54517;SDS011;40423;53.176;6.002;2022-07-24T10:04:45;5.35;;;3.35;;
54517;SDS011;40423;53.176;6.002;2022-07-24T10:07:15;4.97;;;3.60;;
54517;SDS011;40423;53.176;6.002;2022-07-24T10:09:46;7.10;;;3.80;;
54517;SDS011;40423;53.176;6.002;2022-07-24T10:12:15;5.22;;;3.70;;
54517;SDS011;40423;53.176;6.002;2022-07-24T10:14:45;7.85;;;3.92;;
54517;SDS011;40423;53.176;6.002;2022-07-24T10:17:12;5.60;;;3.70;;
54517;SDS011;40423;53.176;6.002;2022-07-24T10:19:43;5.65;;;3.42;;
54517;SDS011;40423;53.176;6.002;2022-07-24T10:22:14;5.13;;;3.60;;
54517;SDS011;40423;53.176;6.002;2022-07-24T10:27:34;6.82;;;3.33;;
54517;SDS011;40423;53.176;6.002;2022-07-24T10:30:06;4.22;;;3.40;;
54517;SDS011;40423;53.176;6.002;2022-07-24T10:32:34;6.65;;;3.47;;
54517;SDS011;40423;53.176;6.002;2022-07-24T10:40:24;5.93;;;3.22;;
54517;SDS011;40423;53.176;6.002;2022-07-24T10:45:35;4.75;;;3.58;;
54517;SDS011;40423;53.176;6.002;2022-07-24T10:56:18;5.88;;;4.00;;
54517;SDS011;40423;53.176;6.002;2022-07-24T11:03:54;4.45;;;3.58;;
54517;SDS011;40423;53.176;6.002;2022-07-24T11:06:41;5.68;;;3.80;;
54517;SDS011;40423;53.176;6.002;2022-07-24T11:09:09;6.22;;;3.22;;
54517;SDS011;40423;53.176;6.002;2022-07-24T11:11:43;6.60;;;3.45;;
54517;SDS011;40423;53.176;6.002;2022-07-24T11:20:04;7.10;;;3.20;;
54517;SDS011;40423;53.176;6.002;2022-07-24T11:22:41;5.25;;;3.83;;
54517;SDS011;40423;53.176;6.002;2022-07-24T11:25:22;6.78;;;4.15;;
54517;SDS011;40423;53.176;6.002;2022-07-24T11:30:17;4.32;;;3.38;;
54517;SDS011;40423;53.176;6.002;2022-07-24T11:32:43;4.85;;;3.17;;
54517;SDS011;40423;53.176;6.002;2022-07-24T11:35:10;4.65;;;3.58;;
54517;SDS011;40423;53.176;6.002;2022-07-24T11:37:36;4.28;;;3.25;;
54517;SDS011;40423;53.176;6.002;2022-07-24T11:40:03;5.82;;;3.47;;
54517;SDS011;40423;53.176;6.002;2022-07-24T11:42:31;4.65;;;2.83;;
54517;SDS011;40423;53.176;6.002;2022-07-24T11:44:58;6.43;;;3.05;;
54517;SDS011;40423;53.176;6.002;2022-07-24T11:47:24;6.30;;;3.70;;
54517;SDS011;40423;53.176;6.002;2022-07-24T11:52:38;4.13;;;3.33;;
54517;SDS011;40423;53.176;6.002;2022-07-24T11:55:12;5.72;;;3.40;;
54517;SDS011;40423;53.176;6.002;2022-07-24T11:57:40;5.88;;;3.20;;
54517;SDS011;40423;53.176;6.002;2022-07-24T12:00:12;3.95;;;2.92;;
54517;SDS011;40423;53.176;6.002;2022-07-24T12:02:43;5.22;;;2.88;;
54517;SDS011;40423;53.176;6.002;2022-07-24T12:05:10;3.65;;;3.10;;
54517;SDS011;40423;53.176;6.002;2022-07-24T12:07:36;7.07;;;3.88;;
54517;SDS011;40423;53.176;6.002;2022-07-24T12:10:02;5.35;;;2.90;;
54517;SDS011;40423;53.176;6.002;2022-07-24T12:12:35;3.80;;;3.33;;
54517;SDS011;40423;53.176;6.002;2022-07-24T12:15:07;5.13;;;3.10;;
54517;SDS011;40423;53.176;6.002;2022-07-24T12:22:54;2.83;;;2.35;;
54517;SDS011;40423;53.176;6.002;2022-07-24T12:25:21;6.10;;;2.65;;
54517;SDS011;40423;53.176;6.002;2022-07-24T12:27:47;5.30;;;2.60;;
54517;SDS011;40423;53.176;6.002;2022-07-24T12:30:20;4.57;;;2.67;;
54517;SDS011;40423;53.176;6.002;2022-07-24T12:33:05;3.25;;;2.60;;
54517;SDS011;40423;53.176;6.002;2022-07-24T12:38:37;3.60;;;2.75;;
54517;SDS011;40423;53.176;6.002;2022-07-24T12:41:08;5.68;;;2.55;;
54517;SDS011;40423;53.176;6.002;2022-07-24T12:46:18;5.40;;;2.60;;
54517;SDS011;40423;53.176;6.002;2022-07-24T12:51:58;4.38;;;2.60;;
54517;SDS011;40423;53.176;6.002;2022-07-24T12:56:58;4.97;;;2.50;;
54517;SDS011;40423;53.176;6.002;2022-07-24T12:59:35;6.40;;;2.60;;
54517;SDS011;40423;53.176;6.002;2022-07-24T13:04:39;5.30;;;2.78;;
54517;SDS011;40423;53.176;6.002;2022-07-24T13:07:10;5.25;;;2.50;;
54517;SDS011;40423;53.176;6.002;2022-07-24T13:09:36;4.40;;;2.65;;
54517;SDS011;40423;53.176;6.002;2022-07-24T13:12:02;4.35;;;2.22;;
54517;SDS011;40423;53.176;6.002;2022-07-24T13:14:29;3.05;;;2.35;;
54517;SDS011;40423;53.176;6.002;2022-07-24T13:17:00;3.70;;;2.67;;
54517;SDS011;40423;53.176;6.002;2022-07-24T13:21:53;6.50;;;2.63;;
54517;SDS011;40423;53.176;6.002;2022-07-24T13:24:19;4.22;;;2.70;;
54517;SDS011;40423;53.176;6.002;2022-07-24T13:26:45;5.30;;;2.55;;
54517;SDS011;40423;53.176;6.002;2022-07-24T13:29:11;5.28;;;2.72;;
54517;SDS011;40423;53.176;6.002;2022-07-24T13:31:37;3.03;;;2.38;;
54517;SDS011;40423;53.176;6.002;2022-07-24T13:34:04;4.75;;;2.50;;
54517;SDS011;40423;53.176;6.002;2022-07-24T13:36:31;5.00;;;2.47;;
54517;SDS011;40423;53.176;6.002;2022-07-24T13:39:01;4.03;;;2.38;;
54517;SDS011;40423;53.176;6.002;2022-07-24T13:41:29;3.00;;;2.40;;
54517;SDS011;40423;53.176;6.002;2022-07-24T13:43:55;3.45;;;2.80;;
54517;SDS011;40423;53.176;6.002;2022-07-24T13:46:21;3.88;;;2.60;;
54517;SDS011;40423;53.176;6.002;2022-07-24T13:48:47;2.65;;;2.10;;
54517;SDS011;40423;53.176;6.002;2022-07-24T13:51:13;4.97;;;2.50;;
54517;SDS011;40423;53.176;6.002;2022-07-24T13:53:39;3.90;;;2.85;;
54517;SDS011;40423;53.176;6.002;2022-07-24T13:56:05;3.22;;;2.65;;
54517;SDS011;40423;53.176;6.002;2022-07-24T13:58:31;4.65;;;2.53;;
54517;SDS011;40423;53.176;6.002;2022-07-24T14:01:00;3.13;;;2.20;;
54517;SDS011;40423;53.176;6.002;2022-07-24T14:03:29;2.90;;;2.60;;
54517;SDS011;40423;53.176;6.002;2022-07-24T14:05:55;5.07;;;2.60;;
54517;SDS011;40423;53.176;6.002;2022-07-24T14:08:21;5.32;;;2.67;;
54517;SDS011;40423;53.176;6.002;2022-07-24T14:10:47;3.15;;;2.50;;
54517;SDS011;40423;53.176;6.002;2022-07-24T14:13:13;5.95;;;2.40;;
54517;SDS011;40423;53.176;6.002;2022-07-24T14:15:38;3.78;;;2.20;;
54517;SDS011;40423;53.176;6.002;2022-07-24T14:18:04;8.27;;;2.60;;
54517;SDS011;40423;53.176;6.002;2022-07-24T14:20:30;2.40;;;1.88;;
54517;SDS011;40423;53.176;6.002;2022-07-24T14:22:56;5.78;;;2.50;;
54517;SDS011;40423;53.176;6.002;2022-07-24T14:25:21;3.78;;;2.65;;
54517;SDS011;40423;53.176;6.002;2022-07-24T14:27:47;5.85;;;2.10;;
54517;SDS011;40423;53.176;6.002;2022-07-24T14:30:13;4.15;;;2.53;;
54517;SDS011;40423;53.176;6.002;2022-07-24T14:32:39;3.80;;;2.30;;
54517;SDS011;40423;53.176;6.002;2022-07-24T14:35:06;4.07;;;2.35;;
54517;SDS011;40423;53.176;6.002;2022-07-24T14:37:33;2.63;;;2.10;;
54517;SDS011;40423;53.176;6.002;2022-07-24T14:40:03;8.02;;;2.30;;
54517;SDS011;40423;53.176;6.002;2022-07-24T14:42:31;5.90;;;2.17;;
54517;SDS011;40423;53.176;6.002;2022-07-24T14:44:57;3.65;;;2.20;;
54517;SDS011;40423;53.176;6.002;2022-07-24T14:47:23;6.43;;;2.30;;
54517;SDS011;40423;53.176;6.002;2022-07-24T14:49:48;5.20;;;2.20;;
54517;SDS011;40423;53.176;6.002;2022-07-24T14:52:14;3.70;;;2.15;;
54517;SDS011;40423;53.176;6.002;2022-07-24T14:54:43;3.17;;;2.20;;
54517;SDS011;40423;53.176;6.002;2022-07-24T14:57:12;3.78;;;2.38;;
54517;SDS011;40423;53.176;6.002;2022-07-24T14:59:39;5.00;;;2.17;;
54517;SDS011;40423;53.176;6.002;2022-07-24T15:02:05;3.95;;;2.50;;
54517;SDS011;40423;53.176;6.002;2022-07-24T15:04:32;3.05;;;2.30;;
54517;SDS011;40423;53.176;6.002;2022-07-24T15:06:57;3.97;;;2.15;;
54517;SDS011;40423;53.176;6.002;2022-07-24T15:09:23;3.45;;;2.22;;
54517;SDS011;40423;53.176;6.002;2022-07-24T15:11:49;3.58;;;2.50;;
54517;SDS011;40423;53.176;6.002;2022-07-24T15:14:15;3.10;;;2.30;;
54517;SDS011;40423;53.176;6.002;2022-07-24T15:16:41;2.45;;;2.22;;
54517;SDS011;40423;53.176;6.002;2022-07-24T15:19:07;3.58;;;2.90;;
54517;SDS011;40423;53.176;6.002;2022-07-24T15:21:33;4.05;;;2.58;;
54517;SDS011;40423;53.176;6.002;2022-07-24T15:23:59;5.07;;;2.60;;
54517;SDS011;40423;53.176;6.002;2022-07-24T15:26:25;3.22;;;2.47;;
54517;SDS011;40423;53.176;6.002;2022-07-24T15:28:51;3.50;;;2.50;;
54517;SDS011;40423;53.176;6.002;2022-07-24T15:31:17;5.60;;;2.97;;
54517;SDS011;40423;53.176;6.002;2022-07-24T15:33:43;3.88;;;2.70;;
54517;SDS011;40423;53.176;6.002;2022-07-24T15:36:09;6.13;;;2.60;;
54517;SDS011;40423;53.176;6.002;2022-07-24T15:38:35;5.35;;;2.65;;
54517;SDS011;40423;53.176;6.002;2022-07-24T15:41:01;3.35;;;2.33;;